createdAt,value
2024-03-16T00:01:02.685Z,95333.50
2024-03-16T00:03:05.791Z,95335.78
2024-03-16T00:05:07.837Z,95345.66
2024-03-16T00:07:09.663Z,95340.00
2024-03-16T00:09:12.201Z,95338.00
2024-03-16T00:11:13.953Z,95336.31
2024-03-16T00:13:15.752Z,95329.03
2024-03-16T00:15:17.485Z,95325.56
2024-03-16T00:17:22.968Z,95325.22
2024-03-16T00:19:27.261Z,95332.53
2024-03-16T00:21:30.459Z,95324.00
2024-03-16T00:23:32.424Z,95323.63
2024-03-16T00:25:34.608Z,95327.59
2024-03-16T00:27:36.509Z,95333.31
2024-03-16T00:29:38.239Z,95326.25
2024-03-16T00:31:39.954Z,95334.59
2024-03-16T00:33:41.715Z,95337.28
2024-03-16T00:35:43.449Z,95336.44
2024-03-16T00:37:45.210Z,95337.28
2024-03-16T00:39:46.889Z,95334.84
2024-03-16T00:41:49.096Z,95323.50
2024-03-16T00:43:51.141Z,95331.63
2024-03-16T00:45:52.885Z,95322.44
2024-03-16T00:47:57.591Z,95331.97
2024-03-16T00:49:59.436Z,95340.13
2024-03-16T00:52:01.492Z,95335.09
2024-03-16T00:54:03.723Z,95339.19
2024-03-16T00:56:05.526Z,95340.19
2024-03-16T00:58:07.733Z,95342.16
2024-03-16T01:00:15.981Z,95331.25
2024-03-16T01:02:17.769Z,95343.44
2024-03-16T01:04:22.190Z,95340.31
2024-03-16T01:06:26.883Z,95334.28
2024-03-16T01:08:28.639Z,95334.28
2024-03-16T01:10:30.501Z,95334.00
2024-03-16T01:12:32.231Z,95330.28
2024-03-16T01:14:33.947Z,95332.16
2024-03-16T01:16:36.615Z,95330.13
2024-03-16T01:18:41.349Z,95331.50
2024-03-16T01:20:46.672Z,95321.41
2024-03-16T01:22:48.440Z,95322.91
2024-03-16T01:24:51.056Z,95324.41
2024-03-16T01:26:52.770Z,95319.63
2024-03-16T01:28:55.027Z,95317.78
2024-03-16T01:30:56.950Z,95312.63
2024-03-16T01:32:58.706Z,95315.09
2024-03-16T01:35:00.411Z,95325.47
2024-03-16T01:37:02.260Z,95331.94
2024-03-16T01:39:05.057Z,95321.50
2024-03-16T01:41:06.952Z,95323.50
2024-03-16T01:43:15.898Z,95327.91
2024-03-16T01:45:17.665Z,95321.34
2024-03-16T01:47:21.439Z,95332.16
2024-03-16T01:49:23.350Z,95330.72
2024-03-16T01:51:25.489Z,95330.13
2024-03-16T01:53:27.368Z,95327.00
2024-03-16T01:55:29.990Z,95322.75
2024-03-16T01:57:31.745Z,95329.06
2024-03-16T01:59:33.441Z,95326.00
2024-03-16T02:01:35.793Z,95332.53
2024-03-16T02:03:37.536Z,95322.97
2024-03-16T02:05:39.506Z,95318.63
2024-03-16T02:07:45.349Z,95314.50
2024-03-16T02:09:47.074Z,95316.03
2024-03-16T02:11:51.149Z,95319.69
2024-03-16T02:13:52.837Z,95312.25
2024-03-16T02:15:54.544Z,95308.28
2024-03-16T02:17:56.719Z,95308.47
2024-03-16T02:19:58.443Z,95315.66
2024-03-16T02:22:00.292Z,95315.22
2024-03-16T02:24:02.114Z,95315.94
2024-03-16T02:26:06.152Z,95308.19
2024-03-16T02:28:10.658Z,95308.19
2024-03-16T02:30:16.249Z,95304.09
2024-03-16T02:32:20.939Z,95307.13
2024-03-16T02:34:25.615Z,95310.09
2024-03-16T02:36:29.648Z,95304.31
2024-03-16T02:38:31.388Z,95311.69
2024-03-16T02:40:33.296Z,95315.03
2024-03-16T02:42:36.778Z,95313.75
2024-03-16T02:44:38.567Z,95312.06
2024-03-16T02:46:40.308Z,95314.66
2024-03-16T02:48:42.024Z,95321.03
2024-03-16T02:50:43.769Z,95309.41
2024-03-16T02:52:45.630Z,95309.03
2024-03-16T02:54:47.404Z,95318.09
2024-03-16T02:56:49.789Z,95319.22
2024-03-16T02:58:51.550Z,95328.66
2024-03-16T03:00:54.729Z,95335.50
2024-03-16T03:02:56.412Z,95338.91
2024-03-16T03:04:58.078Z,95339.19
2024-03-16T03:06:59.939Z,95343.34
2024-03-16T03:09:01.992Z,95345.03
2024-03-16T03:11:05.342Z,95347.31
2024-03-16T03:13:10.262Z,95339.56
2024-03-16T03:15:13.562Z,95349.41
2024-03-16T03:17:18.346Z,95344.75
2024-03-16T03:19:22.714Z,95351.59
2024-03-16T03:21:24.836Z,95351.66
2024-03-16T03:23:26.649Z,95356.63
2024-03-16T03:25:28.624Z,95354.69
2024-03-16T03:27:30.345Z,95355.88
2024-03-16T03:29:32.124Z,95358.00
2024-03-16T03:31:33.870Z,95359.63
2024-03-16T03:33:35.851Z,95359.34
2024-03-16T03:35:40.908Z,95359.66
2024-03-16T03:37:42.567Z,95361.28
2024-03-16T03:39:44.328Z,95360.78
2024-03-16T03:41:46.111Z,95366.47
2024-03-16T03:43:59.035Z,95358.75
2024-03-16T03:46:00.910Z,95363.28
2024-03-16T03:48:04.627Z,95363.88
2024-03-16T03:50:06.558Z,95367.91
2024-03-16T03:52:08.303Z,95367.53
2024-03-16T03:54:10.053Z,95362.03
2024-03-16T03:56:12.159Z,95382.59
2024-03-16T03:58:14.262Z,95383.88
2024-03-16T04:00:16.987Z,95387.63
2024-03-16T04:02:18.720Z,95386.78
2024-03-16T04:04:22.730Z,95383.28
2024-03-16T04:06:28.867Z,95391.00
2024-03-16T04:08:30.599Z,95378.44
2024-03-16T04:10:32.922Z,95385.69
2024-03-16T04:12:34.730Z,95369.78
2024-03-16T04:14:36.483Z,95377.84
2024-03-16T04:16:38.196Z,95381.28
2024-03-16T04:18:40.447Z,95380.69
2024-03-16T04:20:42.157Z,95376.22
2024-03-16T04:22:44.074Z,95379.72
2024-03-16T04:24:45.967Z,95374.19
2024-03-16T04:26:47.728Z,95377.75
2024-03-16T04:28:49.512Z,95376.97
2024-03-16T04:30:51.512Z,95378.84
2024-03-16T04:32:53.307Z,95368.78
2024-03-16T04:34:55.268Z,95379.22
2024-03-16T04:36:57.043Z,95386.59
2024-03-16T04:38:58.741Z,95377.81
2024-03-16T04:41:00.601Z,95383.59
2024-03-16T04:43:05.315Z,95389.78
2024-03-16T04:45:09.871Z,95388.66
2024-03-16T04:47:11.563Z,95387.38
2024-03-16T04:49:13.294Z,95388.56
2024-03-16T04:51:16.155Z,95388.28
2024-03-16T04:53:17.961Z,95395.41
2024-03-16T04:55:19.681Z,95397.06
2024-03-16T04:57:21.405Z,95398.63
2024-03-16T04:59:23.198Z,95394.44
2024-03-16T05:01:25.203Z,95393.88
2024-03-16T05:03:28.428Z,95395.50
2024-03-16T05:05:30.269Z,95394.00
2024-03-16T05:07:33.394Z,95395.41
2024-03-16T05:09:35.401Z,95403.19
2024-03-16T05:11:38.018Z,95401.31
2024-03-16T05:13:39.720Z,95403.16
2024-03-16T05:15:41.439Z,95402.84
2024-03-16T05:17:43.311Z,95391.53
2024-03-16T05:19:45.901Z,95393.84
2024-03-16T05:21:47.663Z,95395.53
2024-03-16T05:25:53.867Z,95402.03
2024-03-16T05:27:55.590Z,95396.34
2024-03-16T05:29:57.720Z,95403.22
2024-03-16T05:32:00.706Z,95408.25
2024-03-16T05:34:02.956Z,95405.34
2024-03-16T05:36:06.882Z,95400.06
2024-03-16T05:38:08.561Z,95412.81
2024-03-16T05:40:11.674Z,95407.16
2024-03-16T05:42:13.439Z,95409.34
2024-03-16T05:44:15.236Z,95404.97
2024-03-16T05:46:17.118Z,95407.78
2024-03-16T05:48:19.340Z,95401.38
2024-03-16T05:50:21.012Z,95408.81
2024-03-16T05:52:22.868Z,95404.91
2024-03-16T05:54:24.667Z,95407.13
2024-03-16T05:56:26.496Z,95411.84
2024-03-16T05:58:33.284Z,95415.91
2024-03-16T06:00:39.380Z,95417.78
2024-03-16T06:02:41.505Z,95417.41
2024-03-16T06:04:46.111Z,95420.84
2024-03-16T06:06:50.306Z,95433.97
2024-03-16T06:08:51.974Z,95428.75
2024-03-16T06:10:53.765Z,95435.78
2024-03-16T06:12:55.588Z,95437.81
2024-03-16T06:14:57.411Z,95447.50
2024-03-16T06:16:59.099Z,95447.88
2024-03-16T06:19:01.624Z,95452.88
2024-03-16T06:21:05.681Z,95464.16
2024-03-16T06:23:07.935Z,95460.19
2024-03-16T06:25:12.090Z,95466.63
2024-03-16T06:27:19.638Z,95473.44
2024-03-16T06:29:27.580Z,95465.84
2024-03-16T06:31:37.166Z,95469.81
2024-03-16T06:33:46.482Z,95474.25
2024-03-16T06:35:51.560Z,95468.28
2024-03-16T06:37:53.214Z,95483.66
2024-03-16T06:39:54.935Z,95477.81
2024-03-16T06:41:56.758Z,95486.66
2024-03-16T06:43:58.473Z,95493.03
2024-03-16T06:46:02.345Z,95487.88
2024-03-16T06:48:04.482Z,95490.25
2024-03-16T06:50:08.387Z,95502.34
2024-03-16T06:52:10.946Z,95506.19
2024-03-16T06:54:13.897Z,95508.56
2024-03-16T06:56:15.788Z,95506.38
2024-03-16T06:58:17.629Z,95519.91
2024-03-16T07:00:19.298Z,95513.56
2024-03-16T07:02:21.029Z,95509.97
2024-03-16T07:04:23.065Z,95510.19
2024-03-16T07:06:26.283Z,95520.00
2024-03-16T07:08:30.586Z,95525.66
2024-03-16T07:10:32.303Z,95529.53
2024-03-16T07:12:35.458Z,95531.84
2024-03-16T07:14:37.153Z,95533.81
2024-03-16T07:16:39.095Z,95539.03
2024-03-16T07:18:43.946Z,95538.56
2024-03-16T07:20:47.820Z,95535.16
2024-03-16T07:22:49.517Z,95530.28
2024-03-16T07:24:51.484Z,95536.25
2024-03-16T07:26:53.256Z,95537.81
2024-03-16T07:28:56.658Z,95547.50
2024-03-16T07:30:58.597Z,95556.34
2024-03-16T07:33:00.447Z,95554.75
2024-03-16T07:35:02.322Z,95564.34
2024-03-16T07:37:05.585Z,95562.53
2024-03-16T07:39:10.120Z,95575.03
2024-03-16T07:41:15.213Z,95568.22
2024-03-16T07:43:17.051Z,95570.59
2024-03-16T07:45:18.803Z,95572.16
2024-03-16T07:47:20.634Z,95573.00
2024-03-16T07:49:22.374Z,95579.94
2024-03-16T07:51:30.491Z,95572.59
2024-03-16T07:53:35.382Z,95583.22
2024-03-16T07:55:40.213Z,95584.41
2024-03-16T07:57:41.933Z,95587.25
2024-03-16T07:59:43.595Z,95585.91
2024-03-16T08:01:45.431Z,95591.16
2024-03-16T08:03:47.183Z,95592.03
2024-03-16T08:05:49.132Z,95591.25
2024-03-16T08:07:51.044Z,95596.31
2024-03-16T08:09:52.763Z,95597.91
2024-03-16T08:11:54.472Z,95598.88
2024-03-16T08:13:56.205Z,95594.88
2024-03-16T08:15:58.173Z,95594.88
2024-03-16T08:18:01.956Z,95599.16
2024-03-16T08:20:04.388Z,95609.44
2024-03-16T08:22:06.220Z,95607.63
2024-03-16T08:24:07.961Z,95609.56
2024-03-16T08:26:10.634Z,95605.03
2024-03-16T08:28:12.445Z,95611.94
2024-03-16T08:30:14.268Z,95616.63
2024-03-16T08:32:16.038Z,95629.19
2024-03-16T08:34:17.966Z,95626.53
2024-03-16T08:36:19.704Z,95623.00
2024-03-16T08:38:21.346Z,95627.75
2024-03-16T08:40:23.713Z,95631.38
2024-03-16T08:42:25.980Z,95640.50
2024-03-16T08:44:29.746Z,95649.03
2024-03-16T08:46:33.294Z,95640.38
2024-03-16T08:48:35.689Z,95643.72
2024-03-16T08:50:37.426Z,95653.53
2024-03-16T08:52:39.698Z,95647.88
2024-03-16T08:54:41.446Z,95643.31
2024-03-16T08:56:45.858Z,95651.44
2024-03-16T08:58:47.844Z,95650.28
2024-03-16T09:00:49.811Z,95660.66
2024-03-16T09:02:53.545Z,95651.81
2024-03-16T09:04:58.148Z,95658.91
2024-03-16T09:07:00.431Z,95661.38
2024-03-16T09:09:02.670Z,95655.31
2024-03-16T09:11:05.379Z,95660.91
2024-03-16T09:13:07.299Z,95662.84
2024-03-16T09:15:12.944Z,95663.00
2024-03-16T09:17:14.656Z,95681.84
2024-03-16T09:19:16.510Z,95671.19
2024-03-16T09:21:18.321Z,95676.34
2024-03-16T09:23:20.223Z,95674.69
2024-03-16T09:25:22.260Z,95673.81
2024-03-16T09:27:23.906Z,95675.13
2024-03-16T09:29:25.675Z,95677.22
2024-03-16T09:31:30.318Z,95670.22
2024-03-16T09:33:35.512Z,95675.66
2024-03-16T09:35:37.461Z,95677.50
2024-03-16T09:37:39.364Z,95682.03
2024-03-16T09:39:43.762Z,95682.16
2024-03-16T09:41:47.857Z,95681.97
